Airfield :
LOGIN :

Register | Disclaimer

   EN    FR    IT 

 










Legend :    VFR   Marginal VFR   IFR   Intensive IFR   Very Intensive IFR
Visi :
Ceiling :
>= 8 km
>= 3000ft
5 to 8 km
1000 to 3000 ft
1500m to 5 km
500 to 1000 ft
800 to 1500m
200 to 500 ft
< 800m
< 200 ft
Symbols :   Thunderstorms  Fog  Heavy snow  Heavy precipitations  Wind > 20 kt
SIGMETs :     Misc.  Thunderstorms  Icing  Turbulence  Mountain Waves  Volcanic Ashes






- Airport Elevation : 939 ft


LKKB - Kbely Air Base

CURRENT METAR :
  • 282300Z 24016KT 9999 FEW046 02/M03 Q1001 NOSIG

EXPIRED METARs :
  • 282200Z 23013KT CAVOK 02/M03 Q1000 NOSIG

TAF COR TAF LKKB
Valid from the 28 at 18:00 until the 29 at 18:00 UTC


281700Z 2818/2918 22016KT 9999 SCT030
TEMPO 2818/2821 24020G30KT
PROB30
TEMPO 2818/2902 7000 SHRA BKN020
PROB40
TEMPO 2900/2907 3000 SHSNRA BKN014
BECMG 2900/2902 24012KT
TEMPO 2906/2918 26016G26KT



MET'MAP, your aeronautical weather chart ! - Copyright ORBIFLY December 2007 - Disclaimer

ORBIFLY MET'MAP TEAM :

Programming & Development : Alexandra Zaïnal
Concept & original design : Baudouin d'Aumeries
Assistance for programming : Marc-Olivier Méhu
Technical & hardware support : Manuel Goepfert

Contact : metmap@orbifly.com




SOURCES & CREDITS :

   NOAA